sensor_id;sensor_type;location;lat;lon;timestamp;P1;durP1;ratioP1;P2;durP2;ratioP2
18820;SDS011;9539;59.332;18.034;2022-11-12T00:01:38;10.77;;;2.35;;
18820;SDS011;9539;59.332;18.034;2022-11-12T00:04:05;11.20;;;2.33;;
18820;SDS011;9539;59.332;18.034;2022-11-12T00:06:33;10.73;;;2.33;;
18820;SDS011;9539;59.332;18.034;2022-11-12T00:09:00;10.15;;;2.22;;
18820;SDS011;9539;59.332;18.034;2022-11-12T00:11:27;9.38;;;2.65;;
18820;SDS011;9539;59.332;18.034;2022-11-12T00:13:53;10.88;;;2.80;;
18820;SDS011;9539;59.332;18.034;2022-11-12T00:16:21;12.05;;;2.60;;
18820;SDS011;9539;59.332;18.034;2022-11-12T00:18:48;9.32;;;2.40;;
18820;SDS011;9539;59.332;18.034;2022-11-12T00:21:15;10.18;;;2.67;;
18820;SDS011;9539;59.332;18.034;2022-11-12T00:23:42;8.60;;;2.30;;
18820;SDS011;9539;59.332;18.034;2022-11-12T00:26:09;11.00;;;2.40;;
18820;SDS011;9539;59.332;18.034;2022-11-12T00:28:35;6.47;;;2.00;;
18820;SDS011;9539;59.332;18.034;2022-11-12T00:31:05;8.95;;;2.25;;
18820;SDS011;9539;59.332;18.034;2022-11-12T00:33:37;7.90;;;2.10;;
18820;SDS011;9539;59.332;18.034;2022-11-12T00:36:05;9.00;;;2.10;;
18820;SDS011;9539;59.332;18.034;2022-11-12T00:38:32;9.30;;;2.42;;
18820;SDS011;9539;59.332;18.034;2022-11-12T00:40:59;7.70;;;2.20;;
18820;SDS011;9539;59.332;18.034;2022-11-12T00:43:26;8.45;;;2.55;;
18820;SDS011;9539;59.332;18.034;2022-11-12T00:45:53;8.63;;;2.35;;
18820;SDS011;9539;59.332;18.034;2022-11-12T00:48:20;9.43;;;2.10;;
18820;SDS011;9539;59.332;18.034;2022-11-12T00:50:48;8.85;;;2.53;;
18820;SDS011;9539;59.332;18.034;2022-11-12T00:53:15;8.20;;;2.22;;
18820;SDS011;9539;59.332;18.034;2022-11-12T00:55:42;10.93;;;2.53;;
18820;SDS011;9539;59.332;18.034;2022-11-12T00:58:10;8.27;;;2.10;;
18820;SDS011;9539;59.332;18.034;2022-11-12T01:00:36;11.18;;;2.42;;
18820;SDS011;9539;59.332;18.034;2022-11-12T01:03:03;8.98;;;2.22;;
18820;SDS011;9539;59.332;18.034;2022-11-12T01:05:31;8.45;;;2.65;;
18820;SDS011;9539;59.332;18.034;2022-11-12T01:08:00;11.05;;;2.28;;
18820;SDS011;9539;59.332;18.034;2022-11-12T01:10:26;8.95;;;2.33;;
18820;SDS011;9539;59.332;18.034;2022-11-12T01:12:53;7.82;;;2.08;;
18820;SDS011;9539;59.332;18.034;2022-11-12T01:15:20;6.85;;;2.25;;
18820;SDS011;9539;59.332;18.034;2022-11-12T01:17:47;7.45;;;2.08;;
18820;SDS011;9539;59.332;18.034;2022-11-12T01:20:14;10.82;;;2.33;;
18820;SDS011;9539;59.332;18.034;2022-11-12T01:22:41;5.80;;;2.00;;
18820;SDS011;9539;59.332;18.034;2022-11-12T01:25:09;8.75;;;2.25;;
18820;SDS011;9539;59.332;18.034;2022-11-12T01:27:36;8.90;;;2.30;;
18820;SDS011;9539;59.332;18.034;2022-11-12T01:30:03;7.35;;;2.10;;
18820;SDS011;9539;59.332;18.034;2022-11-12T01:32:32;5.65;;;1.95;;
18820;SDS011;9539;59.332;18.034;2022-11-12T01:35:00;12.35;;;2.42;;
18820;SDS011;9539;59.332;18.034;2022-11-12T01:37:30;8.02;;;2.30;;
18820;SDS011;9539;59.332;18.034;2022-11-12T01:39:57;9.38;;;2.45;;
18820;SDS011;9539;59.332;18.034;2022-11-12T01:42:27;9.57;;;2.05;;
18820;SDS011;9539;59.332;18.034;2022-11-12T01:44:55;9.70;;;2.45;;
18820;SDS011;9539;59.332;18.034;2022-11-12T01:47:22;9.77;;;2.40;;
18820;SDS011;9539;59.332;18.034;2022-11-12T01:49:54;8.77;;;2.13;;
18820;SDS011;9539;59.332;18.034;2022-11-12T01:52:25;7.32;;;2.53;;
18820;SDS011;9539;59.332;18.034;2022-11-12T01:54:57;10.25;;;2.30;;
18820;SDS011;9539;59.332;18.034;2022-11-12T01:57:30;9.02;;;2.38;;
18820;SDS011;9539;59.332;18.034;2022-11-12T02:00:03;8.13;;;2.03;;
18820;SDS011;9539;59.332;18.034;2022-11-12T02:02:32;9.52;;;2.22;;
18820;SDS011;9539;59.332;18.034;2022-11-12T02:05:00;8.90;;;1.90;;
18820;SDS011;9539;59.332;18.034;2022-11-12T02:07:29;8.27;;;1.98;;
18820;SDS011;9539;59.332;18.034;2022-11-12T02:09:58;11.45;;;2.70;;
18820;SDS011;9539;59.332;18.034;2022-11-12T02:12:30;12.05;;;2.78;;
18820;SDS011;9539;59.332;18.034;2022-11-12T02:15:14;10.07;;;2.55;;
18820;SDS011;9539;59.332;18.034;2022-11-12T02:17:41;12.07;;;2.58;;
18820;SDS011;9539;59.332;18.034;2022-11-12T02:20:09;11.13;;;2.50;;
18820;SDS011;9539;59.332;18.034;2022-11-12T02:22:37;8.65;;;2.00;;
18820;SDS011;9539;59.332;18.034;2022-11-12T02:25:05;9.38;;;2.42;;
18820;SDS011;9539;59.332;18.034;2022-11-12T02:27:32;12.15;;;2.42;;
18820;SDS011;9539;59.332;18.034;2022-11-12T02:30:00;10.82;;;3.00;;
18820;SDS011;9539;59.332;18.034;2022-11-12T02:32:26;9.52;;;2.58;;
18820;SDS011;9539;59.332;18.034;2022-11-12T02:34:53;11.88;;;2.72;;
18820;SDS011;9539;59.332;18.034;2022-11-12T02:37:20;12.35;;;2.92;;
18820;SDS011;9539;59.332;18.034;2022-11-12T02:39:48;7.68;;;2.17;;
18820;SDS011;9539;59.332;18.034;2022-11-12T02:42:15;10.70;;;2.40;;
18820;SDS011;9539;59.332;18.034;2022-11-12T02:44:41;7.60;;;2.20;;
18820;SDS011;9539;59.332;18.034;2022-11-12T02:47:08;11.77;;;2.70;;
18820;SDS011;9539;59.332;18.034;2022-11-12T02:49:35;12.70;;;2.88;;
18820;SDS011;9539;59.332;18.034;2022-11-12T02:52:02;11.40;;;2.50;;
18820;SDS011;9539;59.332;18.034;2022-11-12T02:54:29;10.05;;;2.28;;
18820;SDS011;9539;59.332;18.034;2022-11-12T02:56:57;13.65;;;3.03;;
18820;SDS011;9539;59.332;18.034;2022-11-12T02:59:24;10.20;;;2.55;;
18820;SDS011;9539;59.332;18.034;2022-11-12T03:01:50;9.43;;;2.63;;
18820;SDS011;9539;59.332;18.034;2022-11-12T03:04:17;12.25;;;3.00;;
18820;SDS011;9539;59.332;18.034;2022-11-12T03:06:44;11.70;;;2.80;;
18820;SDS011;9539;59.332;18.034;2022-11-12T03:09:11;10.40;;;2.45;;
18820;SDS011;9539;59.332;18.034;2022-11-12T03:11:38;12.77;;;2.33;;
18820;SDS011;9539;59.332;18.034;2022-11-12T03:14:06;9.90;;;2.70;;
18820;SDS011;9539;59.332;18.034;2022-11-12T03:16:32;10.50;;;2.70;;
18820;SDS011;9539;59.332;18.034;2022-11-12T03:18:59;10.77;;;2.53;;
18820;SDS011;9539;59.332;18.034;2022-11-12T03:21:26;14.18;;;2.97;;
18820;SDS011;9539;59.332;18.034;2022-11-12T03:23:53;12.25;;;2.67;;
18820;SDS011;9539;59.332;18.034;2022-11-12T03:26:20;11.00;;;2.70;;
18820;SDS011;9539;59.332;18.034;2022-11-12T03:28:47;13.27;;;2.60;;
18820;SDS011;9539;59.332;18.034;2022-11-12T03:31:15;12.30;;;2.88;;
18820;SDS011;9539;59.332;18.034;2022-11-12T03:33:42;14.52;;;2.80;;
18820;SDS011;9539;59.332;18.034;2022-11-12T03:36:08;9.30;;;2.67;;
18820;SDS011;9539;59.332;18.034;2022-11-12T03:38:36;11.73;;;3.08;;
18820;SDS011;9539;59.332;18.034;2022-11-12T03:41:03;9.85;;;2.58;;
18820;SDS011;9539;59.332;18.034;2022-11-12T03:43:30;10.07;;;2.65;;
18820;SDS011;9539;59.332;18.034;2022-11-12T03:45:56;9.50;;;2.30;;
18820;SDS011;9539;59.332;18.034;2022-11-12T03:48:25;9.82;;;2.72;;
18820;SDS011;9539;59.332;18.034;2022-11-12T03:50:51;13.07;;;2.83;;
18820;SDS011;9539;59.332;18.034;2022-11-12T03:53:22;10.35;;;2.40;;
18820;SDS011;9539;59.332;18.034;2022-11-12T03:55:49;12.48;;;3.17;;
18820;SDS011;9539;59.332;18.034;2022-11-12T03:58:15;10.38;;;2.42;;
18820;SDS011;9539;59.332;18.034;2022-11-12T04:00:42;10.18;;;2.35;;
18820;SDS011;9539;59.332;18.034;2022-11-12T04:03:09;11.32;;;2.45;;
18820;SDS011;9539;59.332;18.034;2022-11-12T04:05:37;12.85;;;2.92;;
18820;SDS011;9539;59.332;18.034;2022-11-12T04:08:22;12.98;;;2.80;;
18820;SDS011;9539;59.332;18.034;2022-11-12T04:11:02;13.07;;;2.80;;
18820;SDS011;9539;59.332;18.034;2022-11-12T04:13:30;12.52;;;2.85;;
18820;SDS011;9539;59.332;18.034;2022-11-12T04:15:59;12.57;;;3.05;;
18820;SDS011;9539;59.332;18.034;2022-11-12T04:18:45;13.43;;;3.15;;
18820;SDS011;9539;59.332;18.034;2022-11-12T04:21:33;14.38;;;2.95;;
18820;SDS011;9539;59.332;18.034;2022-11-12T04:24:20;11.55;;;2.85;;
18820;SDS011;9539;59.332;18.034;2022-11-12T04:27:06;12.38;;;2.90;;
18820;SDS011;9539;59.332;18.034;2022-11-12T04:29:34;10.38;;;2.90;;
18820;SDS011;9539;59.332;18.034;2022-11-12T04:32:18;16.17;;;2.70;;
18820;SDS011;9539;59.332;18.034;2022-11-12T04:34:46;14.82;;;3.00;;
18820;SDS011;9539;59.332;18.034;2022-11-12T04:37:14;11.45;;;2.60;;
18820;SDS011;9539;59.332;18.034;2022-11-12T04:39:41;10.90;;;2.85;;
18820;SDS011;9539;59.332;18.034;2022-11-12T04:42:08;10.88;;;2.75;;
18820;SDS011;9539;59.332;18.034;2022-11-12T04:44:53;11.68;;;2.72;;
18820;SDS011;9539;59.332;18.034;2022-11-12T04:47:28;14.50;;;2.97;;
18820;SDS011;9539;59.332;18.034;2022-11-12T04:49:57;10.85;;;2.70;;
18820;SDS011;9539;59.332;18.034;2022-11-12T04:52:26;11.88;;;2.88;;
18820;SDS011;9539;59.332;18.034;2022-11-12T04:54:53;18.70;;;3.58;;
18820;SDS011;9539;59.332;18.034;2022-11-12T04:57:20;14.77;;;3.00;;
18820;SDS011;9539;59.332;18.034;2022-11-12T04:59:47;15.88;;;3.15;;
18820;SDS011;9539;59.332;18.034;2022-11-12T05:02:14;11.90;;;2.78;;
18820;SDS011;9539;59.332;18.034;2022-11-12T05:04:41;12.55;;;2.63;;
18820;SDS011;9539;59.332;18.034;2022-11-12T05:07:08;15.38;;;3.13;;
18820;SDS011;9539;59.332;18.034;2022-11-12T05:09:37;13.88;;;3.15;;
18820;SDS011;9539;59.332;18.034;2022-11-12T05:12:04;16.65;;;3.03;;
18820;SDS011;9539;59.332;18.034;2022-11-12T05:14:31;14.93;;;3.13;;
18820;SDS011;9539;59.332;18.034;2022-11-12T05:16:58;14.75;;;3.00;;
18820;SDS011;9539;59.332;18.034;2022-11-12T05:19:25;16.65;;;3.30;;
18820;SDS011;9539;59.332;18.034;2022-11-12T05:21:52;12.85;;;2.95;;
18820;SDS011;9539;59.332;18.034;2022-11-12T05:24:31;13.52;;;3.03;;
18820;SDS011;9539;59.332;18.034;2022-11-12T05:27:04;14.43;;;3.30;;
18820;SDS011;9539;59.332;18.034;2022-11-12T05:29:32;12.90;;;3.40;;
18820;SDS011;9539;59.332;18.034;2022-11-12T05:31:59;14.02;;;2.90;;
18820;SDS011;9539;59.332;18.034;2022-11-12T05:34:26;17.08;;;3.33;;
18820;SDS011;9539;59.332;18.034;2022-11-12T05:36:53;15.40;;;3.33;;
18820;SDS011;9539;59.332;18.034;2022-11-12T05:39:20;13.68;;;3.13;;
18820;SDS011;9539;59.332;18.034;2022-11-12T05:41:47;14.77;;;3.40;;
18820;SDS011;9539;59.332;18.034;2022-11-12T05:44:16;18.50;;;3.60;;
18820;SDS011;9539;59.332;18.034;2022-11-12T05:46:42;12.43;;;2.92;;
18820;SDS011;9539;59.332;18.034;2022-11-12T05:49:09;17.30;;;3.42;;
18820;SDS011;9539;59.332;18.034;2022-11-12T05:51:36;16.98;;;3.40;;
18820;SDS011;9539;59.332;18.034;2022-11-12T05:54:03;14.23;;;3.38;;
18820;SDS011;9539;59.332;18.034;2022-11-12T05:56:30;16.15;;;3.30;;
18820;SDS011;9539;59.332;18.034;2022-11-12T05:58:57;16.73;;;3.42;;
18820;SDS011;9539;59.332;18.034;2022-11-12T06:01:25;18.13;;;3.35;;
18820;SDS011;9539;59.332;18.034;2022-11-12T06:03:52;22.95;;;3.75;;
18820;SDS011;9539;59.332;18.034;2022-11-12T06:06:19;16.05;;;3.63;;
18820;SDS011;9539;59.332;18.034;2022-11-12T06:08:46;16.85;;;3.42;;
18820;SDS011;9539;59.332;18.034;2022-11-12T06:11:12;19.40;;;3.50;;
18820;SDS011;9539;59.332;18.034;2022-11-12T06:13:39;13.75;;;3.28;;
18820;SDS011;9539;59.332;18.034;2022-11-12T06:16:07;20.65;;;3.47;;
18820;SDS011;9539;59.332;18.034;2022-11-12T06:18:35;17.75;;;3.78;;
18820;SDS011;9539;59.332;18.034;2022-11-12T06:21:03;18.88;;;3.88;;
18820;SDS011;9539;59.332;18.034;2022-11-12T06:23:50;20.15;;;4.00;;
18820;SDS011;9539;59.332;18.034;2022-11-12T06:26:19;17.63;;;3.45;;
18820;SDS011;9539;59.332;18.034;2022-11-12T06:28:46;18.55;;;4.03;;
18820;SDS011;9539;59.332;18.034;2022-11-12T06:31:14;20.70;;;3.47;;
18820;SDS011;9539;59.332;18.034;2022-11-12T06:33:43;17.98;;;3.67;;
18820;SDS011;9539;59.332;18.034;2022-11-12T06:36:10;20.77;;;4.15;;
18820;SDS011;9539;59.332;18.034;2022-11-12T06:38:39;18.95;;;3.67;;
18820;SDS011;9539;59.332;18.034;2022-11-12T06:41:07;19.35;;;3.60;;
18820;SDS011;9539;59.332;18.034;2022-11-12T06:43:35;16.60;;;3.45;;
18820;SDS011;9539;59.332;18.034;2022-11-12T06:46:03;18.38;;;3.92;;
18820;SDS011;9539;59.332;18.034;2022-11-12T06:48:31;19.92;;;3.88;;
18820;SDS011;9539;59.332;18.034;2022-11-12T06:51:05;17.77;;;4.38;;
18820;SDS011;9539;59.332;18.034;2022-11-12T06:53:36;18.40;;;3.45;;
18820;SDS011;9539;59.332;18.034;2022-11-12T06:56:03;22.60;;;4.03;;
18820;SDS011;9539;59.332;18.034;2022-11-12T06:58:31;21.08;;;4.20;;
18820;SDS011;9539;59.332;18.034;2022-11-12T07:01:02;25.67;;;4.50;;
18820;SDS011;9539;59.332;18.034;2022-11-12T07:03:33;17.20;;;3.90;;
18820;SDS011;9539;59.332;18.034;2022-11-12T07:06:06;18.80;;;3.75;;
18820;SDS011;9539;59.332;18.034;2022-11-12T07:08:34;19.55;;;3.92;;
18820;SDS011;9539;59.332;18.034;2022-11-12T07:11:01;23.05;;;4.00;;
18820;SDS011;9539;59.332;18.034;2022-11-12T07:13:28;16.42;;;3.75;;
18820;SDS011;9539;59.332;18.034;2022-11-12T07:15:57;15.65;;;3.95;;
18820;SDS011;9539;59.332;18.034;2022-11-12T07:18:24;17.85;;;3.83;;
18820;SDS011;9539;59.332;18.034;2022-11-12T07:20:55;19.45;;;4.00;;
18820;SDS011;9539;59.332;18.034;2022-11-12T07:23:24;19.88;;;3.65;;
18820;SDS011;9539;59.332;18.034;2022-11-12T07:25:55;19.63;;;4.43;;
18820;SDS011;9539;59.332;18.034;2022-11-12T07:28:23;17.23;;;3.67;;
18820;SDS011;9539;59.332;18.034;2022-11-12T07:30:53;19.05;;;3.42;;
18820;SDS011;9539;59.332;18.034;2022-11-12T07:33:21;14.73;;;3.40;;
18820;SDS011;9539;59.332;18.034;2022-11-12T07:35:47;21.17;;;3.83;;
18820;SDS011;9539;59.332;18.034;2022-11-12T07:38:14;20.65;;;3.72;;
18820;SDS011;9539;59.332;18.034;2022-11-12T07:40:42;19.45;;;3.78;;
18820;SDS011;9539;59.332;18.034;2022-11-12T07:43:09;20.13;;;3.85;;
18820;SDS011;9539;59.332;18.034;2022-11-12T07:45:36;19.85;;;3.70;;
18820;SDS011;9539;59.332;18.034;2022-11-12T07:48:03;18.55;;;3.75;;
18820;SDS011;9539;59.332;18.034;2022-11-12T07:50:30;20.67;;;3.90;;
18820;SDS011;9539;59.332;18.034;2022-11-12T07:52:57;16.63;;;4.00;;
18820;SDS011;9539;59.332;18.034;2022-11-12T07:55:24;20.88;;;3.85;;
18820;SDS011;9539;59.332;18.034;2022-11-12T07:57:52;21.15;;;4.28;;
18820;SDS011;9539;59.332;18.034;2022-11-12T08:00:19;19.70;;;3.63;;
18820;SDS011;9539;59.332;18.034;2022-11-12T08:02:46;19.98;;;3.80;;
18820;SDS011;9539;59.332;18.034;2022-11-12T08:05:13;17.85;;;4.00;;
18820;SDS011;9539;59.332;18.034;2022-11-12T08:07:39;19.27;;;3.80;;
18820;SDS011;9539;59.332;18.034;2022-11-12T08:10:07;19.42;;;3.88;;
18820;SDS011;9539;59.332;18.034;2022-11-12T08:12:34;19.33;;;3.78;;
18820;SDS011;9539;59.332;18.034;2022-11-12T08:15:05;18.67;;;4.05;;
18820;SDS011;9539;59.332;18.034;2022-11-12T08:17:36;18.50;;;4.20;;
18820;SDS011;9539;59.332;18.034;2022-11-12T08:20:04;19.63;;;3.80;;
18820;SDS011;9539;59.332;18.034;2022-11-12T08:22:32;22.23;;;3.47;;
18820;SDS011;9539;59.332;18.034;2022-11-12T08:24:58;14.02;;;3.38;;
18820;SDS011;9539;59.332;18.034;2022-11-12T08:27:25;19.55;;;3.72;;
18820;SDS011;9539;59.332;18.034;2022-11-12T08:29:52;17.38;;;3.85;;
18820;SDS011;9539;59.332;18.034;2022-11-12T08:32:20;14.68;;;3.42;;
18820;SDS011;9539;59.332;18.034;2022-11-12T08:34:47;13.15;;;3.30;;
18820;SDS011;9539;59.332;18.034;2022-11-12T08:37:14;15.52;;;3.17;;
18820;SDS011;9539;59.332;18.034;2022-11-12T08:39:41;15.52;;;4.03;;
18820;SDS011;9539;59.332;18.034;2022-11-12T08:42:07;19.27;;;3.72;;
18820;SDS011;9539;59.332;18.034;2022-11-12T08:44:34;17.55;;;3.78;;
18820;SDS011;9539;59.332;18.034;2022-11-12T08:47:01;15.13;;;3.33;;
18820;SDS011;9539;59.332;18.034;2022-11-12T08:49:29;13.10;;;3.42;;
18820;SDS011;9539;59.332;18.034;2022-11-12T08:51:56;15.65;;;3.70;;
18820;SDS011;9539;59.332;18.034;2022-11-12T08:54:23;17.05;;;3.15;;
18820;SDS011;9539;59.332;18.034;2022-11-12T08:56:50;17.52;;;3.70;;
18820;SDS011;9539;59.332;18.034;2022-11-12T08:59:17;16.80;;;3.92;;
18820;SDS011;9539;59.332;18.034;2022-11-12T09:01:43;17.25;;;3.67;;
18820;SDS011;9539;59.332;18.034;2022-11-12T09:04:10;12.55;;;3.33;;
18820;SDS011;9539;59.332;18.034;2022-11-12T09:06:38;13.73;;;3.35;;
18820;SDS011;9539;59.332;18.034;2022-11-12T09:09:05;12.95;;;3.60;;
18820;SDS011;9539;59.332;18.034;2022-11-12T09:11:32;12.52;;;3.28;;
18820;SDS011;9539;59.332;18.034;2022-11-12T09:13:59;15.32;;;3.80;;
18820;SDS011;9539;59.332;18.034;2022-11-12T09:16:25;13.43;;;3.22;;
18820;SDS011;9539;59.332;18.034;2022-11-12T09:18:52;19.80;;;3.50;;
18820;SDS011;9539;59.332;18.034;2022-11-12T09:21:19;13.25;;;3.42;;
18820;SDS011;9539;59.332;18.034;2022-11-12T09:23:50;12.60;;;3.30;;
18820;SDS011;9539;59.332;18.034;2022-11-12T09:26:17;14.18;;;3.63;;
18820;SDS011;9539;59.332;18.034;2022-11-12T09:28:44;15.55;;;3.40;;
18820;SDS011;9539;59.332;18.034;2022-11-12T09:31:10;12.98;;;3.50;;
18820;SDS011;9539;59.332;18.034;2022-11-12T09:33:37;15.60;;;3.40;;
18820;SDS011;9539;59.332;18.034;2022-11-12T09:36:04;12.98;;;3.40;;
18820;SDS011;9539;59.332;18.034;2022-11-12T09:38:31;17.63;;;3.78;;
18820;SDS011;9539;59.332;18.034;2022-11-12T09:41:03;15.00;;;3.60;;
18820;SDS011;9539;59.332;18.034;2022-11-12T09:43:39;16.58;;;3.40;;
18820;SDS011;9539;59.332;18.034;2022-11-12T09:46:12;12.68;;;3.70;;
18820;SDS011;9539;59.332;18.034;2022-11-12T09:48:50;11.38;;;3.25;;
18820;SDS011;9539;59.332;18.034;2022-11-12T09:51:23;11.68;;;3.15;;
18820;SDS011;9539;59.332;18.034;2022-11-12T09:53:53;13.70;;;3.53;;
18820;SDS011;9539;59.332;18.034;2022-11-12T09:56:23;12.90;;;3.13;;
18820;SDS011;9539;59.332;18.034;2022-11-12T09:58:52;15.02;;;3.30;;
18820;SDS011;9539;59.332;18.034;2022-11-12T10:01:21;13.63;;;3.33;;
18820;SDS011;9539;59.332;18.034;2022-11-12T10:04:01;15.00;;;3.63;;
18820;SDS011;9539;59.332;18.034;2022-11-12T10:06:39;10.23;;;3.15;;
18820;SDS011;9539;59.332;18.034;2022-11-12T10:09:15;14.55;;;3.58;;
18820;SDS011;9539;59.332;18.034;2022-11-12T10:11:54;13.93;;;3.30;;
18820;SDS011;9539;59.332;18.034;2022-11-12T10:14:54;14.55;;;3.10;;
18820;SDS011;9539;59.332;18.034;2022-11-12T10:17:49;14.85;;;3.42;;
18820;SDS011;9539;59.332;18.034;2022-11-12T10:20:21;13.45;;;3.15;;
18820;SDS011;9539;59.332;18.034;2022-11-12T10:22:57;14.60;;;3.58;;
18820;SDS011;9539;59.332;18.034;2022-11-12T10:25:32;13.13;;;3.20;;
18820;SDS011;9539;59.332;18.034;2022-11-12T10:28:03;10.38;;;2.90;;
18820;SDS011;9539;59.332;18.034;2022-11-12T10:30:39;12.68;;;3.40;;
18820;SDS011;9539;59.332;18.034;2022-11-12T10:33:10;12.85;;;3.45;;
18820;SDS011;9539;59.332;18.034;2022-11-12T10:35:39;12.60;;;3.33;;
18820;SDS011;9539;59.332;18.034;2022-11-12T10:38:10;12.10;;;2.80;;
18820;SDS011;9539;59.332;18.034;2022-11-12T10:40:40;14.38;;;3.20;;
18820;SDS011;9539;59.332;18.034;2022-11-12T10:43:20;12.07;;;2.97;;
18820;SDS011;9539;59.332;18.034;2022-11-12T10:45:48;16.35;;;3.42;;
18820;SDS011;9539;59.332;18.034;2022-11-12T10:48:20;11.90;;;3.10;;
18820;SDS011;9539;59.332;18.034;2022-11-12T10:50:48;11.57;;;3.17;;
18820;SDS011;9539;59.332;18.034;2022-11-12T10:53:27;12.27;;;3.35;;
18820;SDS011;9539;59.332;18.034;2022-11-12T10:55:57;14.52;;;3.03;;
18820;SDS011;9539;59.332;18.034;2022-11-12T10:58:27;11.60;;;3.20;;
18820;SDS011;9539;59.332;18.034;2022-11-12T11:00:55;10.57;;;3.00;;
18820;SDS011;9539;59.332;18.034;2022-11-12T11:03:27;13.38;;;2.97;;
18820;SDS011;9539;59.332;18.034;2022-11-12T11:05:58;12.93;;;3.42;;
18820;SDS011;9539;59.332;18.034;2022-11-12T11:08:33;14.30;;;3.30;;
18820;SDS011;9539;59.332;18.034;2022-11-12T11:11:19;12.27;;;3.00;;
18820;SDS011;9539;59.332;18.034;2022-11-12T11:13:48;12.93;;;3.50;;
18820;SDS011;9539;59.332;18.034;2022-11-12T11:16:17;13.98;;;3.13;;
18820;SDS011;9539;59.332;18.034;2022-11-12T11:18:45;15.73;;;3.50;;
18820;SDS011;9539;59.332;18.034;2022-11-12T11:21:20;12.68;;;3.05;;
18820;SDS011;9539;59.332;18.034;2022-11-12T11:24:00;13.77;;;2.83;;
18820;SDS011;9539;59.332;18.034;2022-11-12T11:26:48;12.45;;;3.00;;
18820;SDS011;9539;59.332;18.034;2022-11-12T11:29:26;9.57;;;2.85;;
18820;SDS011;9539;59.332;18.034;2022-11-12T11:32:04;10.25;;;2.72;;
18820;SDS011;9539;59.332;18.034;2022-11-12T11:34:45;11.98;;;3.00;;
18820;SDS011;9539;59.332;18.034;2022-11-12T11:37:21;8.18;;;2.72;;
18820;SDS011;9539;59.332;18.034;2022-11-12T11:39:53;14.57;;;3.20;;
18820;SDS011;9539;59.332;18.034;2022-11-12T11:42:43;12.77;;;3.55;;
18820;SDS011;9539;59.332;18.034;2022-11-12T11:45:24;11.88;;;3.05;;
18820;SDS011;9539;59.332;18.034;2022-11-12T11:48:00;16.20;;;3.50;;
18820;SDS011;9539;59.332;18.034;2022-11-12T11:50:37;11.10;;;3.35;;
18820;SDS011;9539;59.332;18.034;2022-11-12T11:53:11;14.88;;;3.25;;
18820;SDS011;9539;59.332;18.034;2022-11-12T11:55:52;14.52;;;3.35;;
18820;SDS011;9539;59.332;18.034;2022-11-12T11:58:34;15.93;;;3.38;;
18820;SDS011;9539;59.332;18.034;2022-11-12T12:01:14;14.27;;;3.45;;
18820;SDS011;9539;59.332;18.034;2022-11-12T12:04:00;12.93;;;3.03;;
18820;SDS011;9539;59.332;18.034;2022-11-12T12:06:43;14.05;;;3.10;;
18820;SDS011;9539;59.332;18.034;2022-11-12T12:09:32;11.30;;;3.42;;
18820;SDS011;9539;59.332;18.034;2022-11-12T12:12:05;11.63;;;3.03;;
18820;SDS011;9539;59.332;18.034;2022-11-12T12:14:42;14.35;;;3.42;;
18820;SDS011;9539;59.332;18.034;2022-11-12T12:17:21;13.93;;;3.03;;
18820;SDS011;9539;59.332;18.034;2022-11-12T12:20:02;16.27;;;3.00;;
18820;SDS011;9539;59.332;18.034;2022-11-12T12:22:39;13.48;;;2.88;;
18820;SDS011;9539;59.332;18.034;2022-11-12T12:25:11;16.60;;;3.50;;
18820;SDS011;9539;59.332;18.034;2022-11-12T12:27:44;11.68;;;3.10;;
18820;SDS011;9539;59.332;18.034;2022-11-12T12:30:17;11.93;;;3.00;;
18820;SDS011;9539;59.332;18.034;2022-11-12T12:32:48;16.83;;;3.28;;
18820;SDS011;9539;59.332;18.034;2022-11-12T12:35:21;15.52;;;3.05;;
18820;SDS011;9539;59.332;18.034;2022-11-12T12:37:54;20.48;;;3.38;;
18820;SDS011;9539;59.332;18.034;2022-11-12T12:40:29;9.55;;;2.95;;
18820;SDS011;9539;59.332;18.034;2022-11-12T12:43:00;10.27;;;2.85;;
18820;SDS011;9539;59.332;18.034;2022-11-12T12:45:38;13.15;;;2.90;;
18820;SDS011;9539;59.332;18.034;2022-11-12T12:48:10;10.90;;;2.78;;
18820;SDS011;9539;59.332;18.034;2022-11-12T12:50:42;16.90;;;3.60;;
18820;SDS011;9539;59.332;18.034;2022-11-12T12:53:16;10.38;;;2.83;;
18820;SDS011;9539;59.332;18.034;2022-11-12T12:55:56;10.00;;;3.05;;
18820;SDS011;9539;59.332;18.034;2022-11-12T12:58:25;11.82;;;2.97;;
18820;SDS011;9539;59.332;18.034;2022-11-12T13:00:55;12.23;;;2.85;;
18820;SDS011;9539;59.332;18.034;2022-11-12T13:06:22;10.43;;;2.38;;
18820;SDS011;9539;59.332;18.034;2022-11-12T13:08:52;12.45;;;3.05;;
18820;SDS011;9539;59.332;18.034;2022-11-12T13:23:06;12.70;;;2.40;;
18820;SDS011;9539;59.332;18.034;2022-11-12T13:25:35;12.82;;;2.90;;
18820;SDS011;9539;59.332;18.034;2022-11-12T13:28:04;13.80;;;2.80;;
18820;SDS011;9539;59.332;18.034;2022-11-12T13:33:25;10.15;;;2.50;;
18820;SDS011;9539;59.332;18.034;2022-11-12T13:38:49;7.97;;;2.85;;
18820;SDS011;9539;59.332;18.034;2022-11-12T13:41:18;12.70;;;2.75;;
18820;SDS011;9539;59.332;18.034;2022-11-12T13:44:08;12.57;;;2.92;;
18820;SDS011;9539;59.332;18.034;2022-11-12T13:46:41;7.90;;;2.80;;
18820;SDS011;9539;59.332;18.034;2022-11-12T13:49:11;9.10;;;2.40;;
18820;SDS011;9539;59.332;18.034;2022-11-12T13:51:42;8.80;;;2.28;;
18820;SDS011;9539;59.332;18.034;2022-11-12T13:54:23;9.68;;;2.40;;
18820;SDS011;9539;59.332;18.034;2022-11-12T13:56:51;10.07;;;2.65;;
18820;SDS011;9539;59.332;18.034;2022-11-12T13:59:18;8.30;;;2.40;;
18820;SDS011;9539;59.332;18.034;2022-11-12T14:01:47;10.77;;;2.67;;
18820;SDS011;9539;59.332;18.034;2022-11-12T14:04:15;11.15;;;2.72;;
18820;SDS011;9539;59.332;18.034;2022-11-12T14:06:45;8.68;;;2.40;;
18820;SDS011;9539;59.332;18.034;2022-11-12T14:09:30;9.70;;;2.70;;
18820;SDS011;9539;59.332;18.034;2022-11-12T14:12:11;8.77;;;2.35;;
18820;SDS011;9539;59.332;18.034;2022-11-12T14:14:54;9.05;;;2.20;;
18820;SDS011;9539;59.332;18.034;2022-11-12T14:17:34;8.93;;;2.22;;
18820;SDS011;9539;59.332;18.034;2022-11-12T14:20:24;8.13;;;2.50;;
18820;SDS011;9539;59.332;18.034;2022-11-12T14:22:56;10.48;;;2.38;;
18820;SDS011;9539;59.332;18.034;2022-11-12T14:25:30;8.48;;;1.92;;
18820;SDS011;9539;59.332;18.034;2022-11-12T14:27:57;9.57;;;2.00;;
18820;SDS011;9539;59.332;18.034;2022-11-12T14:30:24;8.98;;;2.22;;
18820;SDS011;9539;59.332;18.034;2022-11-12T14:32:56;9.60;;;2.40;;
18820;SDS011;9539;59.332;18.034;2022-11-12T14:35:32;14.95;;;2.58;;
18820;SDS011;9539;59.332;18.034;2022-11-12T14:38:15;7.25;;;2.10;;
18820;SDS011;9539;59.332;18.034;2022-11-12T14:40:47;13.82;;;2.50;;
18820;SDS011;9539;59.332;18.034;2022-11-12T14:43:28;8.52;;;1.92;;
18820;SDS011;9539;59.332;18.034;2022-11-12T14:45:58;12.02;;;2.60;;
18820;SDS011;9539;59.332;18.034;2022-11-12T14:48:27;9.25;;;2.15;;
18820;SDS011;9539;59.332;18.034;2022-11-12T14:50:57;7.75;;;2.28;;
18820;SDS011;9539;59.332;18.034;2022-11-12T14:53:31;9.05;;;2.35;;
18820;SDS011;9539;59.332;18.034;2022-11-12T14:56:04;7.28;;;2.10;;
18820;SDS011;9539;59.332;18.034;2022-11-12T14:58:32;6.82;;;2.25;;
18820;SDS011;9539;59.332;18.034;2022-11-12T15:03:49;9.00;;;2.22;;
18820;SDS011;9539;59.332;18.034;2022-11-12T15:06:18;8.77;;;2.60;;
18820;SDS011;9539;59.332;18.034;2022-11-12T15:08:56;6.10;;;2.40;;
18820;SDS011;9539;59.332;18.034;2022-11-12T15:11:25;12.38;;;2.83;;
18820;SDS011;9539;59.332;18.034;2022-11-12T15:13:55;13.40;;;2.95;;
18820;SDS011;9539;59.332;18.034;2022-11-12T15:16:28;8.65;;;2.97;;
18820;SDS011;9539;59.332;18.034;2022-11-12T15:19:13;14.35;;;3.42;;
18820;SDS011;9539;59.332;18.034;2022-11-12T15:21:47;6.35;;;2.40;;